sensor_id;sensor_type;location;lat;lon;timestamp;pressure;altitude;pressure_sealevel;temperature;humidity
61742;BME280;47650;49.848;9.620;2023-10-08T00:00:26;100194.09;;;18.61;62.07
61742;BME280;47650;49.848;9.620;2023-10-08T00:03:13;100194.94;;;18.62;62.34
61742;BME280;47650;49.848;9.620;2023-10-08T00:05:50;100217.50;;;18.53;62.88
61742;BME280;47650;49.848;9.620;2023-10-08T00:08:16;100236.19;;;18.84;61.86
61742;BME280;47650;49.848;9.620;2023-10-08T00:10:43;100203.00;;;18.62;62.26
61742;BME280;47650;49.848;9.620;2023-10-08T00:13:14;100228.34;;;18.83;62.33
61742;BME280;47650;49.848;9.620;2023-10-08T00:15:44;100230.19;;;18.82;62.61
61742;BME280;47650;49.848;9.620;2023-10-08T00:18:24;100104.97;;;17.75;63.57
61742;BME280;47650;49.848;9.620;2023-10-08T00:20:50;100203.03;;;18.39;63.85
61742;BME280;47650;49.848;9.620;2023-10-08T00:23:42;100208.19;;;18.64;63.11
61742;BME280;47650;49.848;9.620;2023-10-08T00:26:13;100207.91;;;18.58;62.91
61742;BME280;47650;49.848;9.620;2023-10-08T00:28:48;100228.66;;;18.65;63.04
61742;BME280;47650;49.848;9.620;2023-10-08T00:31:18;100205.88;;;18.60;62.75
61742;BME280;47650;49.848;9.620;2023-10-08T00:33:47;100208.47;;;18.69;62.61
61742;BME280;47650;49.848;9.620;2023-10-08T00:36:23;100180.03;;;18.59;62.34
61742;BME280;47650;49.848;9.620;2023-10-08T00:38:49;100219.72;;;18.49;63.78
61742;BME280;47650;49.848;9.620;2023-10-08T00:41:19;100221.75;;;18.47;63.96
61742;BME280;47650;49.848;9.620;2023-10-08T00:43:48;100216.69;;;18.52;63.75
61742;BME280;47650;49.848;9.620;2023-10-08T00:46:17;100208.66;;;18.67;62.95
61742;BME280;47650;49.848;9.620;2023-10-08T00:48:52;100228.84;;;18.78;62.82
61742;BME280;47650;49.848;9.620;2023-10-08T00:51:24;100193.91;;;18.48;63.70
61742;BME280;47650;49.848;9.620;2023-10-08T00:54:06;100252.00;;;18.79;62.83
61742;BME280;47650;49.848;9.620;2023-10-08T00:56:37;100107.88;;;17.89;63.85
61742;BME280;47650;49.848;9.620;2023-10-08T00:59:19;100190.19;;;18.49;63.82
61742;BME280;47650;49.848;9.620;2023-10-08T01:01:52;100190.84;;;18.51;63.89
61742;BME280;47650;49.848;9.620;2023-10-08T01:04:33;100212.44;;;18.73;63.82
61742;BME280;47650;49.848;9.620;2023-10-08T01:07:04;100171.06;;;18.14;64.66
61742;BME280;47650;49.848;9.620;2023-10-08T01:09:40;100170.81;;;18.24;64.63
61742;BME280;47650;49.848;9.620;2023-10-08T01:12:11;100205.59;;;18.55;64.54
61742;BME280;47650;49.848;9.620;2023-10-08T01:14:43;100208.44;;;18.54;64.90
61742;BME280;47650;49.848;9.620;2023-10-08T01:17:10;100211.47;;;18.36;65.37
61742;BME280;47650;49.848;9.620;2023-10-08T01:19:43;100163.00;;;18.14;65.02
61742;BME280;47650;49.848;9.620;2023-10-08T01:22:18;100191.94;;;18.04;66.04
61742;BME280;47650;49.848;9.620;2023-10-08T01:24:45;100178.56;;;18.19;65.96
61742;BME280;47650;49.848;9.620;2023-10-08T01:27:15;100159.97;;;18.17;66.23
61742;BME280;47650;49.848;9.620;2023-10-08T01:29:49;100197.66;;;18.01;66.93
61742;BME280;47650;49.848;9.620;2023-10-08T01:32:21;100132.97;;;17.96;65.92
61742;BME280;47650;49.848;9.620;2023-10-08T01:34:49;100199.44;;;18.09;66.77
61742;BME280;47650;49.848;9.620;2023-10-08T01:37:15;100204.19;;;18.45;65.79
61742;BME280;47650;49.848;9.620;2023-10-08T01:39:47;100196.34;;;18.73;63.75
61742;BME280;47650;49.848;9.620;2023-10-08T01:42:15;100190.59;;;18.76;63.75
61742;BME280;47650;49.848;9.620;2023-10-08T01:44:57;100210.59;;;18.58;65.09
61742;BME280;47650;49.848;9.620;2023-10-08T01:47:26;100166.56;;;18.30;65.19
61742;BME280;47650;49.848;9.620;2023-10-08T01:49:54;100212.59;;;18.56;65.37
61742;BME280;47650;49.848;9.620;2023-10-08T01:52:32;100206.00;;;18.29;66.36
61742;BME280;47650;49.848;9.620;2023-10-08T01:55:00;100225.19;;;18.18;67.11
61742;BME280;47650;49.848;9.620;2023-10-08T01:57:25;100217.56;;;18.30;67.35
61742;BME280;47650;49.848;9.620;2023-10-08T01:59:50;100130.94;;;17.75;67.67
61742;BME280;47650;49.848;9.620;2023-10-08T02:02:26;100222.56;;;18.10;68.12
61742;BME280;47650;49.848;9.620;2023-10-08T02:04:53;100213.47;;;18.34;66.81
61742;BME280;47650;49.848;9.620;2023-10-08T02:07:25;100211.19;;;18.31;67.19
61742;BME280;47650;49.848;9.620;2023-10-08T02:09:51;100174.31;;;18.25;66.76
61742;BME280;47650;49.848;9.620;2023-10-08T02:12:18;100091.13;;;17.17;68.74
61742;BME280;47650;49.848;9.620;2023-10-08T02:14:43;100212.72;;;18.25;68.44
61742;BME280;47650;49.848;9.620;2023-10-08T02:17:09;100199.34;;;18.02;68.74
61742;BME280;47650;49.848;9.620;2023-10-08T02:19:35;100188.94;;;17.99;68.57
61742;BME280;47650;49.848;9.620;2023-10-08T02:22:03;100222.09;;;18.06;69.33
61742;BME280;47650;49.848;9.620;2023-10-08T02:24:34;100222.34;;;18.19;68.59
61742;BME280;47650;49.848;9.620;2023-10-08T02:27:03;100204.25;;;18.13;68.45
61742;BME280;47650;49.848;9.620;2023-10-08T02:29:30;100225.31;;;18.25;68.81
61742;BME280;47650;49.848;9.620;2023-10-08T02:31:58;100180.72;;;17.77;69.65
61742;BME280;47650;49.848;9.620;2023-10-08T02:34:32;100223.25;;;17.80;71.06
61742;BME280;47650;49.848;9.620;2023-10-08T02:36:58;100212.97;;;17.61;71.83
61742;BME280;47650;49.848;9.620;2023-10-08T02:39:31;100219.91;;;17.78;71.40
61742;BME280;47650;49.848;9.620;2023-10-08T02:41:57;100203.75;;;17.32;73.22
61742;BME280;47650;49.848;9.620;2023-10-08T02:44:25;100212.78;;;17.31;73.16
61742;BME280;47650;49.848;9.620;2023-10-08T02:46:51;100234.03;;;17.41;73.38
61742;BME280;47650;49.848;9.620;2023-10-08T02:49:21;100241.59;;;17.37;73.82
61742;BME280;47650;49.848;9.620;2023-10-08T02:51:56;100229.53;;;17.64;72.78
61742;BME280;47650;49.848;9.620;2023-10-08T02:54:23;100172.66;;;17.15;73.40
61742;BME280;47650;49.848;9.620;2023-10-08T02:56:56;100226.03;;;17.64;72.76
61742;BME280;47650;49.848;9.620;2023-10-08T02:59:28;100232.78;;;17.60;72.34
61742;BME280;47650;49.848;9.620;2023-10-08T03:01:53;100224.09;;;17.89;71.51
61742;BME280;47650;49.848;9.620;2023-10-08T03:04:22;100231.97;;;17.51;73.36
61742;BME280;47650;49.848;9.620;2023-10-08T03:06:49;100213.69;;;17.55;72.98
61742;BME280;47650;49.848;9.620;2023-10-08T03:09:16;100214.00;;;17.60;73.02
61742;BME280;47650;49.848;9.620;2023-10-08T03:11:51;100226.16;;;17.39;74.24
61742;BME280;47650;49.848;9.620;2023-10-08T03:14:18;100207.00;;;17.51;73.52
61742;BME280;47650;49.848;9.620;2023-10-08T03:16:51;100203.22;;;17.37;73.61
61742;BME280;47650;49.848;9.620;2023-10-08T03:19:18;100168.59;;;17.27;73.14
61742;BME280;47650;49.848;9.620;2023-10-08T03:21:49;100224.47;;;18.01;71.48
61742;BME280;47650;49.848;9.620;2023-10-08T03:24:19;100208.16;;;17.88;71.23
61742;BME280;47650;49.848;9.620;2023-10-08T03:27:01;100231.59;;;18.17;70.40
61742;BME280;47650;49.848;9.620;2023-10-08T03:29:37;100229.75;;;18.17;69.70
61742;BME280;47650;49.848;9.620;2023-10-08T03:32:19;100240.03;;;18.29;69.41
61742;BME280;47650;49.848;9.620;2023-10-08T03:34:52;100241.41;;;18.25;69.04
61742;BME280;47650;49.848;9.620;2023-10-08T03:37:21;100196.00;;;18.00;69.15
61742;BME280;47650;49.848;9.620;2023-10-08T03:39:55;100247.44;;;18.27;69.14
61742;BME280;47650;49.848;9.620;2023-10-08T03:42:46;100195.41;;;17.90;69.40
61742;BME280;47650;49.848;9.620;2023-10-08T03:45:14;100265.28;;;18.19;69.53
61742;BME280;47650;49.848;9.620;2023-10-08T03:47:48;100267.31;;;18.17;69.28
61742;BME280;47650;49.848;9.620;2023-10-08T03:50:29;100282.69;;;18.00;70.63
61742;BME280;47650;49.848;9.620;2023-10-08T03:53:12;100293.75;;;17.97;71.71
61742;BME280;47650;49.848;9.620;2023-10-08T03:55:38;100289.25;;;17.98;70.96
61742;BME280;47650;49.848;9.620;2023-10-08T03:58:09;100272.72;;;17.78;70.71
61742;BME280;47650;49.848;9.620;2023-10-08T04:01:02;100297.69;;;17.87;71.31
61742;BME280;47650;49.848;9.620;2023-10-08T04:03:43;100300.75;;;17.75;71.44
61742;BME280;47650;49.848;9.620;2023-10-08T04:06:26;100305.97;;;17.69;72.64
61742;BME280;47650;49.848;9.620;2023-10-08T04:09:12;100294.97;;;17.55;72.80
61742;BME280;47650;49.848;9.620;2023-10-08T04:11:42;100259.03;;;17.25;72.90
61742;BME280;47650;49.848;9.620;2023-10-08T04:14:25;100293.50;;;17.44;73.19
61742;BME280;47650;49.848;9.620;2023-10-08T04:16:52;100297.31;;;17.50;73.79
61742;BME280;47650;49.848;9.620;2023-10-08T04:19:19;100302.53;;;17.43;74.49
61742;BME280;47650;49.848;9.620;2023-10-08T04:21:46;100309.59;;;17.44;74.71
61742;BME280;47650;49.848;9.620;2023-10-08T04:24:20;100262.34;;;17.35;74.12
61742;BME280;47650;49.848;9.620;2023-10-08T04:26:46;100275.38;;;17.46;73.98
61742;BME280;47650;49.848;9.620;2023-10-08T04:29:11;100032.81;;;16.01;74.33
61742;BME280;47650;49.848;9.620;2023-10-08T04:31:41;100297.44;;;17.65;73.85
61742;BME280;47650;49.848;9.620;2023-10-08T04:34:20;100287.09;;;17.54;74.79
61742;BME280;47650;49.848;9.620;2023-10-08T04:36:49;100304.44;;;17.66;74.34
61742;BME280;47650;49.848;9.620;2023-10-08T04:39:25;100296.06;;;17.69;74.41
61742;BME280;47650;49.848;9.620;2023-10-08T04:42:02;100291.00;;;17.74;74.53
61742;BME280;47650;49.848;9.620;2023-10-08T04:44:35;100274.63;;;17.69;73.80
61742;BME280;47650;49.848;9.620;2023-10-08T04:47:09;100230.47;;;17.48;74.34
61742;BME280;47650;49.848;9.620;2023-10-08T04:49:35;100226.97;;;17.48;73.75
61742;BME280;47650;49.848;9.620;2023-10-08T04:52:05;100250.22;;;17.47;75.35
61742;BME280;47650;49.848;9.620;2023-10-08T04:54:41;100256.81;;;16.89;80.43
61742;BME280;47650;49.848;9.620;2023-10-08T04:57:18;100228.16;;;16.81;79.48
61742;BME280;47650;49.848;9.620;2023-10-08T04:59:48;100255.56;;;17.16;77.66
61742;BME280;47650;49.848;9.620;2023-10-08T05:02:21;100259.97;;;17.40;76.43
61742;BME280;47650;49.848;9.620;2023-10-08T05:05:18;100250.94;;;17.41;76.19
61742;BME280;47650;49.848;9.620;2023-10-08T05:07:48;100245.38;;;17.12;77.75
61742;BME280;47650;49.848;9.620;2023-10-08T05:10:14;100257.38;;;17.32;77.66
61742;BME280;47650;49.848;9.620;2023-10-08T05:12:51;100228.00;;;16.74;78.84
61742;BME280;47650;49.848;9.620;2023-10-08T05:15:40;100243.03;;;17.00;79.08
61742;BME280;47650;49.848;9.620;2023-10-08T05:18:27;100142.41;;;16.42;77.76
61742;BME280;47650;49.848;9.620;2023-10-08T05:21:13;100238.47;;;17.25;75.93
61742;BME280;47650;49.848;9.620;2023-10-08T05:24:09;100235.53;;;17.35;75.26
61742;BME280;47650;49.848;9.620;2023-10-08T05:26:42;100242.47;;;17.61;74.23
61742;BME280;47650;49.848;9.620;2023-10-08T05:29:16;100249.22;;;17.48;74.02
61742;BME280;47650;49.848;9.620;2023-10-08T05:31:56;100262.16;;;17.76;72.95
61742;BME280;47650;49.848;9.620;2023-10-08T05:34:50;100247.38;;;17.49;73.11
61742;BME280;47650;49.848;9.620;2023-10-08T05:37:37;100188.78;;;17.46;71.75
61742;BME280;47650;49.848;9.620;2023-10-08T05:40:08;100249.13;;;17.34;73.79
61742;BME280;47650;49.848;9.620;2023-10-08T05:42:46;100263.47;;;17.49;73.70
61742;BME280;47650;49.848;9.620;2023-10-08T05:45:13;100241.63;;;17.60;73.07
61742;BME280;47650;49.848;9.620;2023-10-08T05:47:44;100238.50;;;17.80;72.93
61742;BME280;47650;49.848;9.620;2023-10-08T05:50:40;100252.38;;;17.92;71.47
61742;BME280;47650;49.848;9.620;2023-10-08T05:53:27;100190.88;;;17.59;70.63
61742;BME280;47650;49.848;9.620;2023-10-08T05:56:09;100153.84;;;17.54;69.93
61742;BME280;47650;49.848;9.620;2023-10-08T05:58:53;100258.53;;;18.23;69.59
61742;BME280;47650;49.848;9.620;2023-10-08T06:01:37;100214.81;;;17.92;68.81
61742;BME280;47650;49.848;9.620;2023-10-08T06:04:09;100265.63;;;18.39;68.98
61742;BME280;47650;49.848;9.620;2023-10-08T06:07:08;100264.31;;;18.58;67.79
61742;BME280;47650;49.848;9.620;2023-10-08T06:09:58;100268.94;;;18.65;67.62
61742;BME280;47650;49.848;9.620;2023-10-08T06:12:48;100273.59;;;18.71;67.14
61742;BME280;47650;49.848;9.620;2023-10-08T06:15:26;100221.69;;;18.55;66.96
61742;BME280;47650;49.848;9.620;2023-10-08T06:18:09;100254.69;;;18.79;66.42
61742;BME280;47650;49.848;9.620;2023-10-08T06:20:35;100277.63;;;18.90;66.23
61742;BME280;47650;49.848;9.620;2023-10-08T06:23:02;100285.69;;;19.05;65.82
61742;BME280;47650;49.848;9.620;2023-10-08T06:25:33;100271.97;;;19.00;65.85
61742;BME280;47650;49.848;9.620;2023-10-08T06:28:17;100273.56;;;19.09;65.29
61742;BME280;47650;49.848;9.620;2023-10-08T06:30:52;100255.41;;;19.11;64.86
61742;BME280;47650;49.848;9.620;2023-10-08T06:33:23;100237.31;;;19.05;64.40
61742;BME280;47650;49.848;9.620;2023-10-08T06:35:52;100104.72;;;18.23;64.14
61742;BME280;47650;49.848;9.620;2023-10-08T06:38:36;100299.81;;;19.07;66.17
61742;BME280;47650;49.848;9.620;2023-10-08T06:41:13;100290.38;;;18.50;69.21
61742;BME280;47650;49.848;9.620;2023-10-08T06:43:41;100306.91;;;18.15;72.25
61742;BME280;47650;49.848;9.620;2023-10-08T06:46:37;100309.06;;;18.43;70.82
61742;BME280;47650;49.848;9.620;2023-10-08T06:49:08;100328.03;;;18.41;71.24
61742;BME280;47650;49.848;9.620;2023-10-08T06:51:40;100359.19;;;18.97;68.96
61742;BME280;47650;49.848;9.620;2023-10-08T06:54:09;100349.84;;;19.08;68.59
61742;BME280;47650;49.848;9.620;2023-10-08T06:56:43;100354.53;;;18.68;69.79
61742;BME280;47650;49.848;9.620;2023-10-08T06:59:14;100317.47;;;18.86;67.92
61742;BME280;47650;49.848;9.620;2023-10-08T07:01:44;100342.19;;;18.58;70.08
61742;BME280;47650;49.848;9.620;2023-10-08T07:04:16;100346.25;;;19.30;67.24
61742;BME280;47650;49.848;9.620;2023-10-08T07:06:43;100365.16;;;19.37;67.81
61742;BME280;47650;49.848;9.620;2023-10-08T07:09:12;100368.44;;;19.62;66.34
61742;BME280;47650;49.848;9.620;2023-10-08T07:11:56;100355.16;;;19.76;64.90
61742;BME280;47650;49.848;9.620;2023-10-08T07:14:23;100361.81;;;19.95;64.14
61742;BME280;47650;49.848;9.620;2023-10-08T07:16:53;100368.59;;;20.05;63.79
61742;BME280;47650;49.848;9.620;2023-10-08T07:19:20;100376.38;;;19.70;64.70
61742;BME280;47650;49.848;9.620;2023-10-08T07:21:49;100375.31;;;18.74;69.05
61742;BME280;47650;49.848;9.620;2023-10-08T07:24:19;100375.59;;;18.33;71.49
61742;BME280;47650;49.848;9.620;2023-10-08T07:26:51;100373.41;;;18.83;69.83
61742;BME280;47650;49.848;9.620;2023-10-08T07:29:21;100362.75;;;18.43;70.54
61742;BME280;47650;49.848;9.620;2023-10-08T07:31:47;100232.19;;;17.41;71.02
61742;BME280;47650;49.848;9.620;2023-10-08T07:34:17;100368.81;;;18.60;70.27
61742;BME280;47650;49.848;9.620;2023-10-08T07:36:50;100380.22;;;18.93;68.62
61742;BME280;47650;49.848;9.620;2023-10-08T07:39:18;100366.50;;;18.80;67.63
61742;BME280;47650;49.848;9.620;2023-10-08T07:41:56;100368.19;;;19.04;66.96
61742;BME280;47650;49.848;9.620;2023-10-08T07:44:23;100372.28;;;19.15;66.39
61742;BME280;47650;49.848;9.620;2023-10-08T07:46:50;100379.78;;;19.20;67.03
61742;BME280;47650;49.848;9.620;2023-10-08T07:49:16;100372.13;;;19.61;65.56
61742;BME280;47650;49.848;9.620;2023-10-08T07:51:42;100382.69;;;20.07;62.79
61742;BME280;47650;49.848;9.620;2023-10-08T07:54:18;100317.38;;;20.20;60.24
61742;BME280;47650;49.848;9.620;2023-10-08T07:56:45;100380.72;;;20.74;60.19
61742;BME280;47650;49.848;9.620;2023-10-08T07:59:10;100319.84;;;21.08;57.93
61742;BME280;47650;49.848;9.620;2023-10-08T08:01:43;100361.13;;;21.09;57.38
61742;BME280;47650;49.848;9.620;2023-10-08T08:04:11;100287.78;;;20.92;56.54
61742;BME280;47650;49.848;9.620;2023-10-08T08:06:39;100346.19;;;21.41;56.34
61742;BME280;47650;49.848;9.620;2023-10-08T08:09:04;100350.44;;;21.98;54.59
61742;BME280;47650;49.848;9.620;2023-10-08T08:11:49;100366.63;;;20.94;56.38
61742;BME280;47650;49.848;9.620;2023-10-08T08:14:16;100331.97;;;20.47;58.71
61742;BME280;47650;49.848;9.620;2023-10-08T08:16:50;100356.09;;;20.77;59.44
61742;BME280;47650;49.848;9.620;2023-10-08T08:19:17;100354.03;;;21.64;56.11
61742;BME280;47650;49.848;9.620;2023-10-08T08:21:50;100351.13;;;21.66;55.91
61742;BME280;47650;49.848;9.620;2023-10-08T08:24:18;100305.53;;;21.42;56.36
61742;BME280;47650;49.848;9.620;2023-10-08T08:29:51;100345.72;;;21.66;54.81
61742;BME280;47650;49.848;9.620;2023-10-08T08:32:21;100333.16;;;21.86;54.23
61742;BME280;47650;49.848;9.620;2023-10-08T08:34:49;100296.44;;;20.80;56.45
61742;BME280;47650;49.848;9.620;2023-10-08T08:37:18;100352.91;;;20.67;58.51
61742;BME280;47650;49.848;9.620;2023-10-08T08:39:50;100310.47;;;20.76;57.58
61742;BME280;47650;49.848;9.620;2023-10-08T08:42:21;100363.59;;;20.82;58.87
61742;BME280;47650;49.848;9.620;2023-10-08T08:44:50;100365.56;;;20.30;59.71
61742;BME280;47650;49.848;9.620;2023-10-08T08:47:20;100369.97;;;20.01;61.47
61742;BME280;47650;49.848;9.620;2023-10-08T08:49:55;100322.09;;;20.33;59.13
61742;BME280;47650;49.848;9.620;2023-10-08T08:52:22;100359.97;;;20.53;59.21
61742;BME280;47650;49.848;9.620;2023-10-08T08:54:48;100282.56;;;20.19;58.69
61742;BME280;47650;49.848;9.620;2023-10-08T08:57:14;100402.44;;;20.66;58.59
61742;BME280;47650;49.848;9.620;2023-10-08T08:59:52;100405.84;;;20.60;60.15
61742;BME280;47650;49.848;9.620;2023-10-08T09:02:18;100399.06;;;20.64;60.35
61742;BME280;47650;49.848;9.620;2023-10-08T09:04:48;100394.31;;;20.29;60.61
61742;BME280;47650;49.848;9.620;2023-10-08T09:07:14;100384.94;;;20.40;59.89
61742;BME280;47650;49.848;9.620;2023-10-08T09:09:42;100398.78;;;20.74;58.58
61742;BME280;47650;49.848;9.620;2023-10-08T09:12:09;100423.06;;;21.23;57.81
61742;BME280;47650;49.848;9.620;2023-10-08T09:14:36;100430.88;;;21.75;54.93
61742;BME280;47650;49.848;9.620;2023-10-08T09:17:05;100415.97;;;22.21;53.81
61742;BME280;47650;49.848;9.620;2023-10-08T09:19:37;100425.69;;;22.63;52.09
61742;BME280;47650;49.848;9.620;2023-10-08T09:22:08;100303.00;;;22.51;49.49
61742;BME280;47650;49.848;9.620;2023-10-08T09:24:35;100423.22;;;22.82;50.00
61742;BME280;47650;49.848;9.620;2023-10-08T09:27:25;100451.97;;;23.56;48.84
61742;BME280;47650;49.848;9.620;2023-10-08T09:29:52;100462.22;;;22.39;51.23
61742;BME280;47650;49.848;9.620;2023-10-08T09:32:20;100430.34;;;23.23;48.18
61742;BME280;47650;49.848;9.620;2023-10-08T09:34:53;100447.13;;;22.23;51.28
61742;BME280;47650;49.848;9.620;2023-10-08T09:37:19;100446.56;;;23.30;49.38
61742;BME280;47650;49.848;9.620;2023-10-08T09:39:50;100447.81;;;23.27;48.54
61742;BME280;47650;49.848;9.620;2023-10-08T09:42:19;100458.56;;;23.80;48.37
61742;BME280;47650;49.848;9.620;2023-10-08T09:44:47;100306.34;;;22.80;47.60
61742;BME280;47650;49.848;9.620;2023-10-08T09:47:21;100461.75;;;23.51;48.95
61742;BME280;47650;49.848;9.620;2023-10-08T09:50:02;100439.84;;;24.44;47.10
61742;BME280;47650;49.848;9.620;2023-10-08T09:52:49;100435.09;;;23.47;48.15
61742;BME280;47650;49.848;9.620;2023-10-08T09:55:21;100332.22;;;24.19;45.39
61742;BME280;47650;49.848;9.620;2023-10-08T09:57:47;100415.47;;;24.76;46.13
61742;BME280;47650;49.848;9.620;2023-10-08T10:00:14;100423.84;;;24.29;45.52
61742;BME280;47650;49.848;9.620;2023-10-08T10:02:45;100416.38;;;24.70;45.76
61742;BME280;47650;49.848;9.620;2023-10-08T10:05:11;100407.31;;;23.99;46.78
61742;BME280;47650;49.848;9.620;2023-10-08T10:07:40;100402.53;;;22.34;50.87
61742;BME280;47650;49.848;9.620;2023-10-08T10:10:29;100404.84;;;22.44;51.08
61742;BME280;47650;49.848;9.620;2023-10-08T10:13:09;100417.72;;;22.42;51.00
61742;BME280;47650;49.848;9.620;2023-10-08T10:15:38;100415.56;;;21.47;53.74
61742;BME280;47650;49.848;9.620;2023-10-08T10:18:14;100429.72;;;21.84;53.60
61742;BME280;47650;49.848;9.620;2023-10-08T10:23:46;100435.19;;;22.39;52.25
61742;BME280;47650;49.848;9.620;2023-10-08T10:31:34;100407.09;;;21.50;55.91
61742;BME280;47650;49.848;9.620;2023-10-08T10:34:09;100420.09;;;21.75;55.95
61742;BME280;47650;49.848;9.620;2023-10-08T10:36:39;100412.03;;;20.97;56.92
61742;BME280;47650;49.848;9.620;2023-10-08T10:39:12;100432.44;;;20.84;57.83
61742;BME280;47650;49.848;9.620;2023-10-08T10:41:53;100458.75;;;21.26;58.16
61742;BME280;47650;49.848;9.620;2023-10-08T10:44:31;100473.16;;;21.89;56.44
61742;BME280;47650;49.848;9.620;2023-10-08T10:47:07;100436.19;;;22.31;53.96
61742;BME280;47650;49.848;9.620;2023-10-08T10:49:48;100451.41;;;22.39;53.31
61742;BME280;47650;49.848;9.620;2023-10-08T10:52:35;100448.13;;;22.57;52.19
61742;BME280;47650;49.848;9.620;2023-10-08T10:55:12;100453.22;;;23.40;51.31
61742;BME280;47650;49.848;9.620;2023-10-08T10:57:43;100380.78;;;22.89;50.60
61742;BME280;47650;49.848;9.620;2023-10-08T11:00:10;100449.47;;;23.55;49.24
61742;BME280;47650;49.848;9.620;2023-10-08T11:02:58;100456.97;;;23.53;49.46
61742;BME280;47650;49.848;9.620;2023-10-08T11:05:34;100455.88;;;23.87;48.59
61742;BME280;47650;49.848;9.620;2023-10-08T11:08:04;100424.94;;;23.30;49.99
61742;BME280;47650;49.848;9.620;2023-10-08T11:10:35;100432.44;;;23.14;50.60
61742;BME280;47650;49.848;9.620;2023-10-08T11:13:05;100470.41;;;24.65;47.23
61742;BME280;47650;49.848;9.620;2023-10-08T11:15:40;100472.78;;;24.41;47.59
61742;BME280;47650;49.848;9.620;2023-10-08T11:18:13;100479.28;;;25.10;46.57
61742;BME280;47650;49.848;9.620;2023-10-08T11:20:43;100481.56;;;25.45;44.36
61742;BME280;47650;49.848;9.620;2023-10-08T11:23:32;100446.91;;;26.21;42.75
61742;BME280;47650;49.848;9.620;2023-10-08T11:26:04;100479.13;;;25.81;43.65
61742;BME280;47650;49.848;9.620;2023-10-08T11:28:34;100486.41;;;26.05;43.15
61742;BME280;47650;49.848;9.620;2023-10-08T11:31:03;100485.44;;;25.75;44.40
61742;BME280;47650;49.848;9.620;2023-10-08T11:33:36;100446.97;;;26.82;41.25
61742;BME280;47650;49.848;9.620;2023-10-08T11:36:09;100466.25;;;27.82;39.80
61742;BME280;47650;49.848;9.620;2023-10-08T11:38:45;100450.88;;;28.40;38.47
61742;BME280;47650;49.848;9.620;2023-10-08T11:41:17;100436.69;;;26.54;41.49
61742;BME280;47650;49.848;9.620;2023-10-08T11:43:57;100464.84;;;27.44;40.07
61742;BME280;47650;49.848;9.620;2023-10-08T11:46:27;100417.72;;;26.47;40.75
61742;BME280;47650;49.848;9.620;2023-10-08T11:48:56;100439.78;;;25.21;44.16
61742;BME280;47650;49.848;9.620;2023-10-08T11:51:25;100388.88;;;26.16;41.68
61742;BME280;47650;49.848;9.620;2023-10-08T11:53:52;100442.66;;;27.16;40.33
61742;BME280;47650;49.848;9.620;2023-10-08T11:56:18;100415.94;;;26.41;41.88
61742;BME280;47650;49.848;9.620;2023-10-08T11:58:51;100428.97;;;27.70;39.69
61742;BME280;47650;49.848;9.620;2023-10-08T12:01:17;100381.53;;;28.07;38.17
61742;BME280;47650;49.848;9.620;2023-10-08T12:03:46;100422.06;;;26.36;41.42
61742;BME280;47650;49.848;9.620;2023-10-08T12:06:19;100420.31;;;26.42;41.55
61742;BME280;47650;49.848;9.620;2023-10-08T12:08:46;100420.47;;;25.98;41.95
61742;BME280;47650;49.848;9.620;2023-10-08T12:11:15;100388.00;;;27.53;39.38
61742;BME280;47650;49.848;9.620;2023-10-08T12:13:41;100396.88;;;27.61;39.37
61742;BME280;47650;49.848;9.620;2023-10-08T12:16:12;100394.72;;;30.78;34.15
61742;BME280;47650;49.848;9.620;2023-10-08T12:18:46;100384.59;;;29.19;36.23
61742;BME280;47650;49.848;9.620;2023-10-08T12:21:19;100373.28;;;27.78;38.11
61742;BME280;47650;49.848;9.620;2023-10-08T12:23:45;100411.59;;;26.70;41.04
61742;BME280;47650;49.848;9.620;2023-10-08T12:26:16;100406.13;;;26.10;41.83
61742;BME280;47650;49.848;9.620;2023-10-08T12:28:47;100431.59;;;25.71;43.76
61742;BME280;47650;49.848;9.620;2023-10-08T12:31:18;100428.84;;;25.03;46.36
61742;BME280;47650;49.848;9.620;2023-10-08T12:34:10;100435.44;;;25.13;46.77
61742;BME280;47650;49.848;9.620;2023-10-08T12:36:37;100439.19;;;24.49;47.76
61742;BME280;47650;49.848;9.620;2023-10-08T12:39:03;100429.09;;;25.70;45.32
61742;BME280;47650;49.848;9.620;2023-10-08T12:41:34;100419.72;;;25.22;46.07
61742;BME280;47650;49.848;9.620;2023-10-08T12:44:04;100435.13;;;24.33;48.40
61742;BME280;47650;49.848;9.620;2023-10-08T12:46:32;100429.72;;;24.96;47.76
61742;BME280;47650;49.848;9.620;2023-10-08T12:48:59;100394.06;;;25.43;45.67
61742;BME280;47650;49.848;9.620;2023-10-08T12:51:36;100407.03;;;26.03;44.78
61742;BME280;47650;49.848;9.620;2023-10-08T12:54:06;100425.59;;;27.09;43.40
61742;BME280;47650;49.848;9.620;2023-10-08T12:56:32;100425.84;;;26.96;43.00
61742;BME280;47650;49.848;9.620;2023-10-08T12:59:05;100425.97;;;27.84;41.80
61742;BME280;47650;49.848;9.620;2023-10-08T13:01:34;100424.00;;;27.55;41.61
61742;BME280;47650;49.848;9.620;2023-10-08T13:04:00;100423.06;;;27.62;40.48
61742;BME280;47650;49.848;9.620;2023-10-08T13:06:28;100427.06;;;27.59;40.34
61742;BME280;47650;49.848;9.620;2023-10-08T13:08:57;100430.59;;;27.83;40.47
61742;BME280;47650;49.848;9.620;2023-10-08T13:11:26;100418.81;;;28.47;39.71
61742;BME280;47650;49.848;9.620;2023-10-08T13:14:00;100415.75;;;28.89;38.18
61742;BME280;47650;49.848;9.620;2023-10-08T13:16:27;100364.47;;;28.57;38.02
61742;BME280;47650;49.848;9.620;2023-10-08T13:19:20;100414.63;;;30.68;35.24
61742;BME280;47650;49.848;9.620;2023-10-08T13:21:48;100396.53;;;31.80;33.45
61742;BME280;47650;49.848;9.620;2023-10-08T13:24:17;100406.06;;;33.59;30.77
61742;BME280;47650;49.848;9.620;2023-10-08T13:26:45;100399.94;;;33.87;29.91
61742;BME280;47650;49.848;9.620;2023-10-08T13:29:19;100407.63;;;31.10;32.76